Time;durP1;ratioP1;P1;durP2;ratioP2;P2;SDS_P1;SDS_P2;PMS_P1;PMS_P2;Temp;Humidity;BMP_temperature;BMP_pressure;BME280_temperature;BME280_humidity;BME280_pressure;Samples;Min_cycle;Max_cycle;Signal;HPM_P1;HPM_P2
2021/01/17 00:00:04;;;;;;;29.63;21.70;;;;;;;;;;4986494;28;20298;-79
2021/01/17 00:02:30;;;;;;;33.97;22.63;;;;;;;;;;4984259;28;20089;-79
2021/01/17 00:04:57;;;;;;;29.38;21.27;;;;;;;;;;4985549;28;20054;-78
2021/01/17 00:07:23;;;;;;;30.30;21.75;;;;;;;;;;4990538;28;20045;-79
2021/01/17 00:09:49;;;;;;;31.73;21.67;;;;;;;;;;4986998;28;20377;-79
2021/01/17 00:12:16;;;;;;;31.77;22.58;;;;;;;;;;4987487;28;20050;-79
2021/01/17 00:14:42;;;;;;;30.35;21.67;;;;;;;;;;4984382;28;20046;-78
2021/01/17 00:17:08;;;;;;;32.85;22.50;;;;;;;;;;4987913;28;20136;-78
2021/01/17 00:19:35;;;;;;;30.95;21.55;;;;;;;;;;4983965;28;20108;-77
2021/01/17 00:22:01;;;;;;;29.10;21.45;;;;;;;;;;4989536;28;20490;-77
2021/01/17 00:24:28;;;;;;;27.85;20.17;;;;;;;;;;4987962;28;20164;-77
2021/01/17 00:26:54;;;;;;;29.92;20.35;;;;;;;;;;4989362;28;20050;-77
2021/01/17 00:29:20;;;;;;;28.65;20.65;;;;;;;;;;4989591;28;20050;-78
2021/01/17 00:31:49;;;;;;;28.20;20.58;;;;;;;;;;4987141;28;20129;-78
2021/01/17 00:34:15;;;;;;;31.58;20.30;;;;;;;;;;4985248;28;20078;-78
2021/01/17 00:36:41;;;;;;;30.20;20.95;;;;;;;;;;4988697;28;20046;-78
2021/01/17 00:39:08;;;;;;;30.67;21.90;;;;;;;;;;4981839;28;20636;-79
2021/01/17 00:41:35;;;;;;;33.28;21.23;;;;;;;;;;4989797;28;20423;-80
2021/01/17 00:44:05;;;;;;;34.03;22.27;;;;;;;;;;4987258;28;20057;-79
2021/01/17 00:46:35;;;;;;;28.60;20.10;;;;;;;;;;4979636;28;20054;-78
2021/01/17 00:49:02;;;;;;;29.17;20.23;;;;;;;;;;4983730;28;20057;-77
2021/01/17 00:51:35;;;;;;;29.33;19.23;;;;;;;;;;4989836;28;20050;-81
2021/01/17 00:54:01;;;;;;;25.27;19.13;;;;;;;;;;4983568;28;20065;-81
2021/01/17 00:56:27;;;;;;;31.10;19.60;;;;;;;;;;4982887;28;20416;-84
2021/01/17 00:58:53;;;;;;;25.67;18.80;;;;;;;;;;4988248;28;20540;-80
2021/01/17 01:01:19;;;;;;;28.73;20.00;;;;;;;;;;4988095;28;20515;-81
2021/01/17 01:03:45;;;;;;;26.15;18.63;;;;;;;;;;4984561;28;20133;-81
2021/01/17 01:06:19;;;;;;;26.02;19.65;;;;;;;;;;4984489;28;20054;-82
2021/01/17 01:08:45;;;;;;;28.00;19.60;;;;;;;;;;4985875;28;20046;-82
2021/01/17 01:11:21;;;;;;;29.05;20.08;;;;;;;;;;4985214;28;20097;-82
2021/01/17 01:13:48;;;;;;;28.30;19.52;;;;;;;;;;4981428;28;20088;-83
2021/01/17 01:16:14;;;;;;;26.20;19.33;;;;;;;;;;4985400;28;20507;-83
2021/01/17 01:18:41;;;;;;;28.23;18.90;;;;;;;;;;4985262;28;20078;-83
2021/01/17 01:21:08;;;;;;;28.90;19.17;;;;;;;;;;4986855;28;20042;-82
2021/01/17 01:23:34;;;;;;;27.35;19.52;;;;;;;;;;4983012;28;20419;-80
2021/01/17 01:26:00;;;;;;;24.50;19.27;;;;;;;;;;4988616;28;20057;-81
2021/01/17 01:28:26;;;;;;;29.67;19.80;;;;;;;;;;4988656;28;20495;-81
2021/01/17 01:30:54;;;;;;;28.05;19.20;;;;;;;;;;4989507;28;20064;-80
2021/01/17 01:33:23;;;;;;;30.38;21.13;;;;;;;;;;4984321;28;20719;-79
2021/01/17 01:35:51;;;;;;;27.98;19.27;;;;;;;;;;4986978;28;20061;-82
2021/01/17 01:38:17;;;;;;;30.52;20.95;;;;;;;;;;4990381;28;20050;-81
2021/01/17 01:40:56;;;;;;;29.05;20.75;;;;;;;;;;4986848;28;20056;-80
2021/01/17 01:43:23;;;;;;;31.42;20.67;;;;;;;;;;4987431;28;20136;-80
2021/01/17 01:45:50;;;;;;;27.75;18.77;;;;;;;;;;4981429;28;20571;-80
2021/01/17 01:48:16;;;;;;;26.75;19.80;;;;;;;;;;4988547;28;20134;-81
2021/01/17 01:50:43;;;;;;;27.40;19.75;;;;;;;;;;4983888;28;20557;-81
2021/01/17 01:53:12;;;;;;;33.90;20.40;;;;;;;;;;4986689;28;20116;-81
2021/01/17 01:55:38;;;;;;;33.25;20.17;;;;;;;;;;4989483;28;20042;-77
2021/01/17 01:58:08;;;;;;;27.95;19.10;;;;;;;;;;4990698;28;20046;-81
2021/01/17 02:00:34;;;;;;;28.90;20.20;;;;;;;;;;4982981;28;20051;-80
2021/01/17 02:03:03;;;;;;;28.40;19.67;;;;;;;;;;4984702;28;20050;-80
2021/01/17 02:05:29;;;;;;;29.80;19.75;;;;;;;;;;4984837;28;20050;-80
2021/01/17 02:08:04;;;;;;;31.20;22.02;;;;;;;;;;4988180;28;20062;-80
2021/01/17 02:10:31;;;;;;;27.17;19.13;;;;;;;;;;4986702;28;20046;-80
2021/01/17 02:13:12;;;;;;;29.05;19.73;;;;;;;;;;4985071;28;20476;-79
2021/01/17 02:15:40;;;;;;;28.90;19.33;;;;;;;;;;4986310;28;20050;-79
2021/01/17 02:18:08;;;;;;;28.98;18.67;;;;;;;;;;4984126;28;20050;-77
2021/01/17 02:20:36;;;;;;;26.02;18.08;;;;;;;;;;4981524;28;20052;-80
2021/01/17 02:23:12;;;;;;;26.65;19.50;;;;;;;;;;4988478;28;20116;-80
2021/01/17 02:25:39;;;;;;;26.00;18.25;;;;;;;;;;4984921;28;20145;-79
2021/01/17 02:28:07;;;;;;;24.25;19.25;;;;;;;;;;4983954;28;20046;-79
2021/01/17 02:30:35;;;;;;;27.63;18.35;;;;;;;;;;4983757;28;20050;-79
2021/01/17 02:33:04;;;;;;;24.70;17.50;;;;;;;;;;4987446;28;21109;-78
2021/01/17 02:35:34;;;;;;;25.33;17.25;;;;;;;;;;4983879;28;20481;-79
2021/01/17 02:38:19;;;;;;;26.30;17.98;;;;;;;;;;4987414;28;20079;-79
2021/01/17 02:41:10;;;;;;;25.38;18.10;;;;;;;;;;4992754;28;20057;-78
2021/01/17 02:43:37;;;;;;;25.13;17.73;;;;;;;;;;4986858;28;20069;-76
2021/01/17 02:46:09;;;;;;;26.58;19.00;;;;;;;;;;4992185;28;20050;-76
2021/01/17 02:48:41;;;;;;;27.35;19.40;;;;;;;;;;4983880;28;20523;-74
2021/01/17 02:51:07;;;;;;;26.38;18.17;;;;;;;;;;4991720;28;20501;-75
2021/01/17 02:53:56;;;;;;;24.85;18.30;;;;;;;;;;4993385;28;20043;-75
2021/01/17 02:56:24;;;;;;;25.40;17.45;;;;;;;;;;4983607;28;20061;-75
2021/01/17 02:58:51;;;;;;;23.15;16.67;;;;;;;;;;4986125;28;20077;-77
2021/01/17 03:01:23;;;;;;;29.25;20.05;;;;;;;;;;4986117;28;20046;-77
2021/01/17 03:03:50;;;;;;;25.83;17.30;;;;;;;;;;4992107;28;20492;-77
2021/01/17 03:06:16;;;;;;;23.25;16.77;;;;;;;;;;4992396;28;20055;-77
2021/01/17 03:08:42;;;;;;;27.08;18.75;;;;;;;;;;4986220;28;20042;-77
2021/01/17 03:11:10;;;;;;;25.30;18.08;;;;;;;;;;4985293;28;20054;-77
2021/01/17 03:13:37;;;;;;;26.00;18.67;;;;;;;;;;4984033;28;20165;-76
2021/01/17 03:16:06;;;;;;;34.17;18.52;;;;;;;;;;4984874;28;20053;-76
2021/01/17 03:18:42;;;;;;;24.73;16.98;;;;;;;;;;4989498;28;20046;-75
2021/01/17 03:21:09;;;;;;;23.02;17.42;;;;;;;;;;4987798;28;20074;-78
2021/01/17 03:23:37;;;;;;;23.60;16.90;;;;;;;;;;4989722;28;20143;-76
2021/01/17 03:26:03;;;;;;;26.80;18.88;;;;;;;;;;4984136;28;20503;-77
2021/01/17 03:28:29;;;;;;;25.42;17.50;;;;;;;;;;4987499;28;20085;-80
2021/01/17 03:31:04;;;;;;;23.65;16.58;;;;;;;;;;4984537;28;20051;-76
2021/01/17 03:33:30;;;;;;;25.83;16.70;;;;;;;;;;4989717;28;20393;-77
2021/01/17 03:35:57;;;;;;;24.45;16.27;;;;;;;;;;4985489;28;20055;-76
2021/01/17 03:38:23;;;;;;;21.75;16.55;;;;;;;;;;4988540;28;20046;-76
2021/01/17 03:40:49;;;;;;;24.17;17.20;;;;;;;;;;4982221;28;20046;-78
2021/01/17 03:43:15;;;;;;;20.55;15.68;;;;;;;;;;4986248;28;20053;-76
2021/01/17 03:45:44;;;;;;;21.13;16.45;;;;;;;;;;4986109;28;20050;-78
2021/01/17 03:48:10;;;;;;;24.95;17.88;;;;;;;;;;4990485;28;20467;-78
2021/01/17 03:50:37;;;;;;;24.95;16.23;;;;;;;;;;4986784;28;20484;-76
2021/01/17 03:53:06;;;;;;;23.55;17.42;;;;;;;;;;4985758;28;20050;-76
2021/01/17 03:55:32;;;;;;;22.77;16.75;;;;;;;;;;4988926;28;20050;-78
2021/01/17 03:57:58;;;;;;;23.20;16.27;;;;;;;;;;4989579;28;20505;-78
2021/01/17 04:00:26;;;;;;;24.48;17.55;;;;;;;;;;4979112;28;20061;-77
2021/01/17 04:02:55;;;;;;;24.52;16.45;;;;;;;;;;4986231;28;20069;-77
2021/01/17 04:05:21;;;;;;;24.48;16.65;;;;;;;;;;4984626;28;20057;-77
2021/01/17 04:07:48;;;;;;;24.60;16.60;;;;;;;;;;4988202;28;20054;-77
2021/01/17 04:10:14;;;;;;;23.33;16.00;;;;;;;;;;4988441;28;20046;-77
2021/01/17 04:12:42;;;;;;;25.30;15.35;;;;;;;;;;4987360;28;20492;-78
2021/01/17 04:15:08;;;;;;;24.27;16.02;;;;;;;;;;4987978;28;20397;-77
2021/01/17 04:17:34;;;;;;;22.15;16.27;;;;;;;;;;4991658;28;20492;-77
2021/01/17 04:20:03;;;;;;;26.83;17.83;;;;;;;;;;4986344;28;20057;-78
2021/01/17 04:22:29;;;;;;;22.55;16.52;;;;;;;;;;4987950;28;20128;-80
2021/01/17 04:24:56;;;;;;;24.60;16.70;;;;;;;;;;4983471;28;20042;-81
2021/01/17 04:27:22;;;;;;;22.55;15.80;;;;;;;;;;4990272;28;20065;-78
2021/01/17 04:29:48;;;;;;;25.52;16.02;;;;;;;;;;4989653;28;20077;-80
2021/01/17 04:32:14;;;;;;;22.13;15.50;;;;;;;;;;4981133;28;20129;-81
2021/01/17 04:34:43;;;;;;;22.42;17.35;;;;;;;;;;4988484;28;20046;-79
2021/01/17 04:37:11;;;;;;;23.83;16.23;;;;;;;;;;4986412;28;20061;-79
2021/01/17 04:39:37;;;;;;;19.70;14.40;;;;;;;;;;4980283;28;20053;-80
2021/01/17 04:42:06;;;;;;;20.52;15.23;;;;;;;;;;4987685;28;20552;-79
2021/01/17 04:44:34;;;;;;;21.52;15.27;;;;;;;;;;4990898;28;20137;-79
2021/01/17 04:47:03;;;;;;;22.48;15.68;;;;;;;;;;4988081;28;20134;-79
2021/01/17 04:49:32;;;;;;;25.20;16.67;;;;;;;;;;4985415;28;20445;-80
2021/01/17 04:52:01;;;;;;;22.00;16.02;;;;;;;;;;4984183;28;20050;-80
2021/01/17 04:54:27;;;;;;;20.98;15.57;;;;;;;;;;4984290;28;20051;-80
2021/01/17 04:57:00;;;;;;;21.02;15.48;;;;;;;;;;4985881;28;20051;-80
2021/01/17 04:59:30;;;;;;;24.23;17.00;;;;;;;;;;4986357;28;20057;-81
2021/01/17 05:02:03;;;;;;;22.38;15.45;;;;;;;;;;4988019;28;20046;-80
2021/01/17 05:04:38;;;;;;;22.27;16.02;;;;;;;;;;4984504;28;20058;-80
2021/01/17 05:07:09;;;;;;;22.83;15.18;;;;;;;;;;4983431;28;20516;-81
2021/01/17 05:09:43;;;;;;;20.48;14.63;;;;;;;;;;4987387;28;20044;-80
2021/01/17 05:12:13;;;;;;;21.58;15.48;;;;;;;;;;4994576;28;20074;-80
2021/01/17 05:14:42;;;;;;;20.55;15.82;;;;;;;;;;4989890;28;20548;-79
2021/01/17 05:17:09;;;;;;;22.15;14.75;;;;;;;;;;4985731;28;20117;-79
2021/01/17 05:19:36;;;;;;;22.30;14.55;;;;;;;;;;4982283;28;20054;-79
2021/01/17 05:22:03;;;;;;;22.40;15.63;;;;;;;;;;4981771;28;20074;-80
2021/01/17 05:24:30;;;;;;;21.70;15.30;;;;;;;;;;4987379;28;20052;-81
2021/01/17 05:27:00;;;;;;;20.00;14.60;;;;;;;;;;4984183;28;20061;-80
2021/01/17 05:29:27;;;;;;;19.38;14.65;;;;;;;;;;4984613;28;20065;-81
2021/01/17 05:32:14;;;;;;;21.00;13.80;;;;;;;;;;4981966;28;20050;-80
2021/01/17 05:34:42;;;;;;;21.95;14.77;;;;;;;;;;4986741;28;20294;-80
2021/01/17 05:37:11;;;;;;;19.45;13.40;;;;;;;;;;4988265;28;20065;-81
2021/01/17 05:39:56;;;;;;;18.33;13.63;;;;;;;;;;4978039;28;20077;-81
2021/01/17 05:42:23;;;;;;;21.10;14.75;;;;;;;;;;4988220;28;20046;-81
2021/01/17 05:44:49;;;;;;;20.38;14.55;;;;;;;;;;4988532;28;20061;-80
2021/01/17 05:47:20;;;;;;;17.27;12.93;;;;;;;;;;4995774;28;20130;-81
2021/01/17 05:49:47;;;;;;;18.98;14.13;;;;;;;;;;4983003;28;20053;-80
2021/01/17 05:52:17;;;;;;;20.35;13.68;;;;;;;;;;4982277;28;20136;-81
2021/01/17 05:54:48;;;;;;;17.65;12.75;;;;;;;;;;4989842;28;20129;-82
2021/01/17 05:57:22;;;;;;;19.50;13.38;;;;;;;;;;4983551;28;20576;-79
2021/01/17 05:59:49;;;;;;;19.13;13.43;;;;;;;;;;4983845;28;20043;-79
2021/01/17 06:02:16;;;;;;;20.27;13.43;;;;;;;;;;4987336;28;20050;-76
2021/01/17 06:04:43;;;;;;;18.92;13.95;;;;;;;;;;4978417;28;20070;-76
2021/01/17 06:07:11;;;;;;;19.00;13.32;;;;;;;;;;4990175;28;20050;-77
2021/01/17 06:09:37;;;;;;;17.08;13.50;;;;;;;;;;4992744;28;20054;-77
2021/01/17 06:12:04;;;;;;;19.95;14.07;;;;;;;;;;4991456;28;20930;-77
2021/01/17 06:14:31;;;;;;;18.20;13.57;;;;;;;;;;4985606;28;20141;-78
2021/01/17 06:16:58;;;;;;;18.65;13.02;;;;;;;;;;4986661;28;20053;-76
2021/01/17 06:19:34;;;;;;;17.25;11.90;;;;;;;;;;4990917;28;20429;-77
2021/01/17 06:22:02;;;;;;;17.50;12.77;;;;;;;;;;4989513;28;20050;-80
2021/01/17 06:24:32;;;;;;;18.40;12.77;;;;;;;;;;4989146;28;20053;-77
2021/01/17 06:27:04;;;;;;;;;;;;;;;;;;4988585;28;20065;-78
2021/01/17 06:29:35;;;;;;;16.58;11.50;;;;;;;;;;4989708;28;19926;-79
2021/01/17 06:32:20;;;;;;;19.50;12.15;;;;;;;;;;4981907;28;20061;-77
2021/01/17 06:34:48;;;;;;;16.27;12.23;;;;;;;;;;4985350;28;20042;-78
2021/01/17 06:37:15;;;;;;;17.63;12.38;;;;;;;;;;5004294;28;20407;-78
2021/01/17 06:39:43;;;;;;;16.48;12.35;;;;;;;;;;4986263;28;20042;-81
2021/01/17 06:42:11;;;;;;;17.05;11.65;;;;;;;;;;4991594;28;20420;-79
2021/01/17 06:44:37;;;;;;;17.77;11.48;;;;;;;;;;4988107;28;20777;-79
2021/01/17 06:47:04;;;;;;;15.80;11.15;;;;;;;;;;4989845;28;20499;-81
2021/01/17 06:49:35;;;;;;;15.95;12.02;;;;;;;;;;4990324;28;20042;-79
2021/01/17 06:52:03;;;;;;;16.48;11.57;;;;;;;;;;4986860;28;20445;-79
2021/01/17 06:54:39;;;;;;;18.17;12.23;;;;;;;;;;4992819;28;20219;-77
2021/01/17 06:57:05;;;;;;;15.07;10.88;;;;;;;;;;4990197;28;20050;-81
2021/01/17 06:59:38;;;;;;;15.40;10.85;;;;;;;;;;4987093;28;20050;-76
2021/01/17 07:02:10;;;;;;;14.77;10.55;;;;;;;;;;4988508;28;20046;-85
2021/01/17 07:04:41;;;;;;;15.05;11.32;;;;;;;;;;4991585;28;20475;-77
2021/01/17 07:07:22;;;;;;;17.10;10.70;;;;;;;;;;4987328;28;20049;-76
2021/01/17 07:09:49;;;;;;;16.73;10.45;;;;;;;;;;4985612;28;20050;-80
2021/01/17 07:12:19;;;;;;;15.38;10.63;;;;;;;;;;4992494;28;20467;-77
2021/01/17 07:14:51;;;;;;;14.80;10.45;;;;;;;;;;4990757;28;20412;-79
2021/01/17 07:17:18;;;;;;;13.68;9.88;;;;;;;;;;4981894;28;20061;-76
2021/01/17 07:19:49;;;;;;;14.82;11.05;;;;;;;;;;4985020;28;20079;-75
2021/01/17 07:22:15;;;;;;;19.70;9.80;;;;;;;;;;4987228;28;20492;-77
2021/01/17 07:24:43;;;;;;;16.20;10.38;;;;;;;;;;4986902;28;20452;-79
2021/01/17 07:27:36;;;;;;;16.25;11.20;;;;;;;;;;4990298;28;20058;-77
2021/01/17 07:30:03;;;;;;;14.27;9.75;;;;;;;;;;4986199;28;20054;-76
2021/01/17 07:32:32;;;;;;;18.70;11.23;;;;;;;;;;4986037;28;20053;-77
2021/01/17 07:35:04;;;;;;;16.38;10.73;;;;;;;;;;4991078;28;20122;-77
2021/01/17 07:37:32;;;;;;;15.65;11.38;;;;;;;;;;4983689;28;20141;-76
2021/01/17 07:40:01;;;;;;;12.02;9.52;;;;;;;;;;4991684;28;20443;-77
2021/01/17 07:42:32;;;;;;;14.07;10.82;;;;;;;;;;4991215;28;20058;-77
2021/01/17 07:45:11;;;;;;;15.32;10.35;;;;;;;;;;4984863;28;20535;-79
2021/01/17 07:47:41;;;;;;;16.15;10.73;;;;;;;;;;4988807;28;20054;-84
2021/01/17 07:50:11;;;;;;;15.57;10.13;;;;;;;;;;4985277;28;20055;-74
2021/01/17 07:52:39;;;;;;;14.05;10.35;;;;;;;;;;4979594;28;20070;-74
2021/01/17 07:55:06;;;;;;;13.73;9.57;;;;;;;;;;4987903;28;20054;-84
2021/01/17 07:57:34;;;;;;;15.25;9.93;;;;;;;;;;4985721;28;20070;-83
2021/01/17 08:00:06;;;;;;;14.07;10.02;;;;;;;;;;4984999;28;20138;-74
2021/01/17 08:02:36;;;;;;;15.98;10.00;;;;;;;;;;4989210;28;20515;-79
2021/01/17 08:05:05;;;;;;;17.05;11.68;;;;;;;;;;4988561;28;20550;-74
2021/01/17 08:07:33;;;;;;;15.20;9.60;;;;;;;;;;4983390;28;20056;-77
2021/01/17 08:10:00;;;;;;;13.02;9.82;;;;;;;;;;4978791;28;20146;-75
2021/01/17 08:12:29;;;;;;;15.43;9.40;;;;;;;;;;4983827;28;20056;-77
2021/01/17 08:15:14;;;;;;;16.17;9.63;;;;;;;;;;4986705;28;20109;-80
2021/01/17 08:17:40;;;;;;;18.58;11.10;;;;;;;;;;4985470;28;20054;-80
2021/01/17 08:20:10;;;;;;;13.55;9.23;;;;;;;;;;4983371;28;20058;-79
2021/01/17 08:22:46;;;;;;;14.60;9.40;;;;;;;;;;4989738;28;20043;-80
2021/01/17 08:25:15;;;;;;;10.35;8.07;;;;;;;;;;4983670;28;20085;-76
2021/01/17 08:27:45;;;;;;;17.50;8.95;;;;;;;;;;4990601;28;20046;-76
2021/01/17 08:30:21;;;;;;;13.10;8.80;;;;;;;;;;4984584;28;20052;-79
2021/01/17 08:32:48;;;;;;;15.52;7.68;;;;;;;;;;4986309;28;20165;-78
2021/01/17 08:35:17;;;;;;;11.40;7.97;;;;;;;;;;4987759;28;20073;-77
2021/01/17 08:37:54;;;;;;;12.98;9.05;;;;;;;;;;4986859;28;20064;-78
2021/01/17 08:40:29;;;;;;;13.48;8.38;;;;;;;;;;4981612;28;20134;-78
2021/01/17 08:42:57;;;;;;;12.43;8.40;;;;;;;;;;4985189;28;20141;-77
2021/01/17 08:45:23;;;;;;;12.70;8.35;;;;;;;;;;4981525;28;20054;-79
2021/01/17 08:47:51;;;;;;;12.68;8.68;;;;;;;;;;4989414;28;20060;-78
2021/01/17 08:50:30;;;;;;;13.55;8.45;;;;;;;;;;4988974;28;20054;-77
2021/01/17 08:53:09;;;;;;;12.73;8.27;;;;;;;;;;4982657;28;20054;-77
2021/01/17 08:55:38;;;;;;;10.82;7.82;;;;;;;;;;4988595;28;20145;-76
2021/01/17 08:58:05;;;;;;;10.80;8.32;;;;;;;;;;4982812;28;20134;-76
2021/01/17 09:00:50;;;;;;;10.18;7.35;;;;;;;;;;4988124;28;20048;-77
2021/01/17 09:03:26;;;;;;;10.23;7.57;;;;;;;;;;4978196;28;20526;-76
2021/01/17 09:05:53;;;;;;;10.55;7.18;;;;;;;;;;4983839;28;20046;-79
2021/01/17 09:08:19;;;;;;;12.93;8.43;;;;;;;;;;4985926;28;20069;-73
2021/01/17 09:10:46;;;;;;;11.52;7.20;;;;;;;;;;4989273;28;20050;-74
2021/01/17 09:13:18;;;;;;;21.88;10.85;;;;;;;;;;4987731;28;20050;-74
2021/01/17 09:16:04;;;;;;;18.30;11.32;;;;;;;;;;4982506;28;20137;-75
2021/01/17 09:18:33;;;;;;;16.95;11.45;;;;;;;;;;4986985;28;20050;-76
2021/01/17 09:21:00;;;;;;;21.20;12.05;;;;;;;;;;4988361;28;20492;-76
2021/01/17 09:23:26;;;;;;;20.00;12.13;;;;;;;;;;4982712;28;20047;-76
2021/01/17 09:25:57;;;;;;;20.65;12.55;;;;;;;;;;4985880;28;20411;-76
2021/01/17 09:28:23;;;;;;;22.35;12.85;;;;;;;;;;4986224;28;20061;-75
2021/01/17 09:30:57;;;;;;;20.10;13.35;;;;;;;;;;4986185;28;20050;-75
2021/01/17 09:33:23;;;;;;;20.20;13.00;;;;;;;;;;4982807;28;20054;-75
2021/01/17 09:35:50;;;;;;;20.42;12.35;;;;;;;;;;4985505;28;20134;-75
2021/01/17 09:38:17;;;;;;;17.40;11.25;;;;;;;;;;4987068;28;20105;-75
2021/01/17 09:40:45;;;;;;;18.15;11.80;;;;;;;;;;4980953;28;20057;-75
2021/01/17 09:43:12;;;;;;;14.68;11.13;;;;;;;;;;4984857;28;20053;-76
2021/01/17 09:45:38;;;;;;;20.05;12.20;;;;;;;;;;4989308;28;20571;-75
2021/01/17 09:48:07;;;;;;;16.13;12.02;;;;;;;;;;4984893;28;20385;-76
2021/01/17 09:50:36;;;;;;;18.13;10.70;;;;;;;;;;4989227;28;20129;-87
2021/01/17 09:53:07;;;;;;;16.27;10.70;;;;;;;;;;4990539;28;20058;-78
2021/01/17 09:55:46;;;;;;;17.23;11.32;;;;;;;;;;4985551;28;20050;-78
2021/01/17 09:58:13;;;;;;;15.75;10.38;;;;;;;;;;4992083;28;20056;-77
2021/01/17 10:00:40;;;;;;;18.00;11.15;;;;;;;;;;4984008;28;20539;-75
2021/01/17 10:03:07;;;;;;;18.27;11.35;;;;;;;;;;4985065;28;20053;-82
2021/01/17 10:05:37;;;;;;;19.48;11.43;;;;;;;;;;4988309;28;20050;-74
2021/01/17 10:08:05;;;;;;;16.48;10.35;;;;;;;;;;4989248;28;20054;-74
2021/01/17 10:10:32;;;;;;;18.17;11.45;;;;;;;;;;4989671;28;20710;-75
2021/01/17 10:12:59;;;;;;;16.10;10.55;;;;;;;;;;4988816;28;20172;-75
2021/01/17 10:15:31;;;;;;;15.63;10.48;;;;;;;;;;4989701;28;20104;-76
2021/01/17 10:17:57;;;;;;;14.68;10.57;;;;;;;;;;4986799;28;20050;-74
2021/01/17 10:20:24;;;;;;;16.83;11.10;;;;;;;;;;4985716;28;20082;-73
2021/01/17 10:23:09;;;;;;;14.25;9.73;;;;;;;;;;4981194;28;20447;-72
2021/01/17 10:25:39;;;;;;;15.73;10.32;;;;;;;;;;4984437;28;20047;-72
2021/01/17 10:28:10;;;;;;;18.85;9.95;;;;;;;;;;4980110;28;20058;-72
2021/01/17 10:30:41;;;;;;;15.15;10.32;;;;;;;;;;4982888;28;20049;-73
2021/01/17 10:33:09;;;;;;;13.95;9.60;;;;;;;;;;4986395;28;20316;-73
2021/01/17 10:35:37;;;;;;;16.58;10.05;;;;;;;;;;4986642;28;20069;-73
2021/01/17 10:38:06;;;;;;;17.77;9.15;;;;;;;;;;4985828;28;20046;-73
2021/01/17 10:40:32;;;;;;;14.20;9.30;;;;;;;;;;4986172;28;20412;-77
2021/01/17 10:43:25;;;;;;;14.07;9.07;;;;;;;;;;4984623;28;20054;-73
2021/01/17 10:45:53;;;;;;;13.55;8.77;;;;;;;;;;4983756;28;20128;-78
2021/01/17 10:48:21;;;;;;;15.57;9.52;;;;;;;;;;4984805;28;20061;-73
2021/01/17 10:50:47;;;;;;;17.77;9.60;;;;;;;;;;4990022;28;20467;-73
2021/01/17 10:53:13;;;;;;;13.60;9.40;;;;;;;;;;4990515;28;20090;-75
2021/01/17 10:55:44;;;;;;;14.50;10.13;;;;;;;;;;4987205;28;20057;-78
2021/01/17 10:58:17;;;;;;;13.40;8.75;;;;;;;;;;4986546;28;20046;-78
2021/01/17 11:01:00;;;;;;;15.80;9.20;;;;;;;;;;4985992;28;20050;-79
